createdAt,value
2022-09-22T00:01:39.350Z,99690.28
2022-09-22T00:04:13.112Z,99694.63
2022-09-22T00:06:46.993Z,99688.00
2022-09-22T00:09:19.470Z,99698.16
2022-09-22T00:11:54.018Z,99702.66
2022-09-22T00:14:27.587Z,99690.72
2022-09-22T00:17:01.128Z,99669.59
2022-09-22T00:19:33.106Z,99690.44
2022-09-22T00:22:03.475Z,99695.66
2022-09-22T00:24:33.664Z,99691.66
2022-09-22T00:27:03.943Z,99680.28
2022-09-22T00:29:35.415Z,99678.47
2022-09-22T00:32:07.521Z,99669.47
2022-09-22T00:34:37.410Z,99667.47
2022-09-22T00:37:07.148Z,99670.31
2022-09-22T00:39:36.995Z,99675.50
2022-09-22T00:42:07.067Z,99668.75
2022-09-22T00:44:41.070Z,99635.94
2022-09-22T00:47:17.182Z,99659.31
2022-09-22T00:49:52.494Z,99675.94
2022-09-22T00:52:26.635Z,99676.78
2022-09-22T00:54:58.071Z,99673.56
2022-09-22T00:57:31.350Z,99668.47
2022-09-22T01:00:05.804Z,99672.69
2022-09-22T01:02:36.238Z,99667.06
2022-09-22T01:05:07.843Z,99668.59
2022-09-22T01:07:38.475Z,99663.94
2022-09-22T01:10:09.164Z,99661.13
2022-09-22T01:12:43.068Z,99659.56
2022-09-22T01:15:25.920Z,99665.78
2022-09-22T01:18:12.838Z,99673.91
2022-09-22T01:21:20.433Z,99662.66
2022-09-22T01:24:31.673Z,99666.91
2022-09-22T01:27:21.175Z,99651.41
2022-09-22T01:30:24.218Z,99668.03
2022-09-22T01:33:06.350Z,99648.59
2022-09-22T01:35:45.838Z,99654.81
2022-09-22T01:38:25.350Z,99654.50
2022-09-22T01:41:02.259Z,99651.41
2022-09-22T01:43:41.650Z,99645.53
2022-09-22T01:46:18.809Z,99645.38
2022-09-22T01:48:52.592Z,99649.59
2022-09-22T01:51:28.337Z,99644.94
2022-09-22T01:54:04.949Z,99649.00
2022-09-22T01:56:37.459Z,99650.00
2022-09-22T01:59:09.908Z,99650.84
2022-09-22T02:01:47.195Z,99651.94
2022-09-22T02:04:24.996Z,99650.84
2022-09-22T02:07:01.107Z,99652.53
2022-09-22T02:09:34.987Z,99657.84
2022-09-22T02:12:05.768Z,99649.69
2022-09-22T02:14:36.098Z,99649.00
2022-09-22T02:17:07.355Z,99645.19
2022-09-22T02:19:39.949Z,99649.97
2022-09-22T02:22:12.633Z,99651.41
2022-09-22T02:24:44.321Z,99643.38
2022-09-22T02:27:20.503Z,99654.03
2022-09-22T02:29:54.026Z,99652.38
2022-09-22T02:32:26.891Z,99655.03
2022-09-22T02:34:57.973Z,99645.78
2022-09-22T02:37:36.775Z,99649.97
2022-09-22T02:40:18.170Z,99651.69
2022-09-22T02:42:53.351Z,99657.72
2022-09-22T02:45:28.035Z,99637.84
2022-09-22T02:48:03.050Z,99660.38
2022-09-22T02:50:34.096Z,99658.00
2022-09-22T02:53:06.089Z,99655.78
2022-09-22T02:55:36.060Z,99656.03
2022-09-22T02:58:06.215Z,99661.91
2022-09-22T03:00:37.221Z,99661.50
2022-09-22T03:03:08.382Z,99660.66
2022-09-22T03:05:38.386Z,99667.00
2022-09-22T03:08:08.285Z,99658.97
2022-09-22T03:10:37.982Z,99649.81
2022-09-22T03:13:16.519Z,99655.47
2022-09-22T03:15:47.844Z,99661.66
2022-09-22T03:18:19.075Z,99666.56
2022-09-22T03:20:49.173Z,99660.56
2022-09-22T03:23:19.386Z,99659.41
2022-09-22T03:25:49.162Z,99651.13
2022-09-22T03:28:19.392Z,99660.81
2022-09-22T03:30:49.383Z,99651.69
2022-09-22T03:33:20.605Z,99660.84
2022-09-22T03:35:50.532Z,99669.72
2022-09-22T03:38:20.460Z,99670.81
2022-09-22T03:40:53.726Z,99668.56
2022-09-22T03:43:23.563Z,99666.88
2022-09-22T03:45:58.174Z,99668.69
2022-09-22T03:48:31.126Z,99675.75
2022-09-22T03:51:01.576Z,99664.88
2022-09-22T03:53:31.661Z,99672.53
2022-09-22T03:56:09.390Z,99676.13
2022-09-22T03:58:39.684Z,99673.31
2022-09-22T04:01:11.394Z,99682.03
2022-09-22T04:03:42.844Z,99681.22
2022-09-22T04:06:12.634Z,99684.75
2022-09-22T04:08:42.599Z,99650.09
2022-09-22T04:11:12.762Z,99683.31
2022-09-22T04:13:46.230Z,99683.19
2022-09-22T04:16:17.763Z,99695.72
2022-09-22T04:18:49.159Z,99682.91
2022-09-22T04:21:23.665Z,99688.66
2022-09-22T04:23:53.438Z,99679.22
2022-09-22T04:26:23.159Z,99687.25
2022-09-22T04:28:53.074Z,99686.28
2022-09-22T04:31:23.142Z,99686.25
2022-09-22T04:33:54.639Z,99682.59
2022-09-22T04:36:24.388Z,99683.00
2022-09-22T04:38:55.428Z,99684.44
2022-09-22T04:41:28.502Z,99685.41
2022-09-22T04:43:58.365Z,99685.97
2022-09-22T04:46:28.410Z,99677.66
2022-09-22T04:48:59.836Z,99677.41
2022-09-22T04:51:29.549Z,99673.47
2022-09-22T04:53:59.295Z,99665.44
2022-09-22T04:56:29.019Z,99680.63
2022-09-22T04:58:58.721Z,99682.72
2022-09-22T05:01:28.553Z,99682.03
2022-09-22T05:03:59.786Z,99680.94
2022-09-22T05:06:29.576Z,99674.22
2022-09-22T05:08:59.569Z,99680.97
2022-09-22T05:11:30.264Z,99686.59
2022-09-22T05:14:00.166Z,99676.03
2022-09-22T05:16:32.413Z,99691.41
2022-09-22T05:19:04.068Z,99688.06
2022-09-22T05:21:34.316Z,99684.50
2022-09-22T05:24:05.464Z,99695.22
2022-09-22T05:26:35.574Z,99689.28
2022-09-22T05:29:06.397Z,99696.47
2022-09-22T05:31:36.174Z,99694.63
2022-09-22T05:34:07.715Z,99655.22
2022-09-22T05:36:37.513Z,99706.59
2022-09-22T05:39:07.411Z,99707.72
2022-09-22T05:41:37.295Z,99707.41
2022-09-22T05:44:07.091Z,99709.66
2022-09-22T05:46:36.865Z,99707.25
2022-09-22T05:49:08.023Z,99710.47
2022-09-22T05:51:37.832Z,99715.00
2022-09-22T05:54:09.836Z,99714.75
2022-09-22T05:56:39.577Z,99710.78
2022-09-22T05:59:09.387Z,99723.28
2022-09-22T06:01:39.531Z,99711.84
2022-09-22T06:04:10.959Z,99713.81
2022-09-22T06:06:41.899Z,99717.44
2022-09-22T06:09:11.831Z,99721.66
2022-09-22T06:11:41.594Z,99719.59
2022-09-22T06:14:11.473Z,99713.13
2022-09-22T06:16:43.256Z,99720.69
2022-09-22T06:19:14.669Z,99697.88
2022-09-22T06:21:45.681Z,99717.72
2022-09-22T06:24:15.944Z,99712.72
2022-09-22T06:26:47.045Z,99719.97
2022-09-22T06:29:17.691Z,99726.19
2022-09-22T06:31:49.044Z,99722.81
2022-09-22T06:34:20.365Z,99723.44
2022-09-22T06:36:50.277Z,99716.38
2022-09-22T06:39:21.310Z,99723.03
2022-09-22T06:41:51.365Z,99715.63
2022-09-22T06:44:21.347Z,99721.78
2022-09-22T06:46:51.108Z,99724.84
2022-09-22T06:49:22.243Z,99729.09
2022-09-22T06:51:52.163Z,99724.84
2022-09-22T06:54:24.702Z,99729.06
2022-09-22T06:56:55.675Z,99688.75
2022-09-22T06:59:25.871Z,99732.63
2022-09-22T07:01:56.661Z,99727.38
2022-09-22T07:04:28.084Z,99727.56
2022-09-22T07:06:59.200Z,99724.19
2022-09-22T07:09:29.052Z,99729.00
2022-09-22T07:12:00.392Z,99721.53
2022-09-22T07:14:31.288Z,99714.53
2022-09-22T07:17:02.407Z,99724.97
2022-09-22T07:19:35.207Z,99729.88
2022-09-22T07:22:05.302Z,99732.38
2022-09-22T07:24:36.693Z,99718.19
2022-09-22T07:27:10.708Z,99737.44
2022-09-22T07:29:42.795Z,99731.53
2022-09-22T07:32:12.541Z,99735.94
2022-09-22T07:34:47.369Z,99744.38
2022-09-22T07:37:17.693Z,99739.41
2022-09-22T07:39:48.586Z,99739.44
2022-09-22T07:42:19.071Z,99744.59
2022-09-22T07:45:06.312Z,99745.88
2022-09-22T07:47:53.977Z,99752.88
2022-09-22T07:50:25.471Z,99743.13
2022-09-22T07:52:55.415Z,99759.31
2022-09-22T07:55:25.886Z,99749.31
2022-09-22T07:57:58.940Z,99734.88
2022-09-22T08:00:33.146Z,99747.69
2022-09-22T08:03:04.195Z,99754.75
2022-09-22T08:05:35.337Z,99744.59
2022-09-22T08:08:06.078Z,99756.19
2022-09-22T08:10:35.890Z,99744.50
2022-09-22T08:13:05.976Z,99750.44
2022-09-22T08:15:42.217Z,99744.19
2022-09-22T08:18:12.373Z,99749.09
2022-09-22T08:20:45.282Z,99753.63
2022-09-22T08:23:15.167Z,99753.63
2022-09-22T08:25:45.132Z,99742.72
2022-09-22T08:28:15.064Z,99741.53
2022-09-22T08:30:47.258Z,99736.91
2022-09-22T08:33:17.299Z,99751.03
2022-09-22T08:35:57.207Z,99741.41
2022-09-22T08:38:28.350Z,99748.00
2022-09-22T08:41:17.550Z,99733.88
2022-09-22T08:43:55.532Z,99731.88
2022-09-22T08:46:29.730Z,99675.75
2022-09-22T08:49:23.617Z,99724.97
2022-09-22T08:51:58.009Z,99718.75
2022-09-22T08:54:31.613Z,99720.13
2022-09-22T08:57:29.895Z,99717.59
2022-09-22T09:00:05.751Z,99715.41
2022-09-22T09:02:42.015Z,99722.81
2022-09-22T09:05:47.140Z,99718.09
2022-09-22T09:08:50.630Z,99701.94
2022-09-22T09:11:32.222Z,99704.28
2022-09-22T09:14:18.511Z,99710.69
2022-09-22T09:16:52.160Z,99696.88
2022-09-22T09:19:33.393Z,99691.50
2022-09-22T09:22:07.076Z,99696.38
2022-09-22T09:27:42.419Z,99692.66
2022-09-22T09:30:17.928Z,99690.28
2022-09-22T09:32:51.577Z,99693.44
2022-09-22T09:35:26.706Z,99690.09
2022-09-22T09:37:59.247Z,99690.06
2022-09-22T09:40:30.645Z,99689.69
2022-09-22T09:43:03.649Z,99679.88
2022-09-22T09:45:44.091Z,99680.28
2022-09-22T09:48:22.869Z,99674.88
2022-09-22T09:50:53.413Z,99681.94
2022-09-22T09:53:33.536Z,99663.44
2022-09-22T09:56:15.512Z,99678.31
2022-09-22T09:59:14.414Z,99689.44
2022-09-22T10:01:48.118Z,99687.38
2022-09-22T10:04:29.860Z,99670.31
2022-09-22T10:07:12.972Z,99676.50
2022-09-22T10:09:43.700Z,99678.88
2022-09-22T10:12:35.249Z,99685.09
2022-09-22T10:15:25.728Z,99680.63
2022-09-22T10:17:56.558Z,99674.28
2022-09-22T10:20:31.600Z,99683.34
2022-09-22T10:23:21.789Z,99665.31
2022-09-22T10:25:52.319Z,99666.44
2022-09-22T10:28:26.912Z,99657.53
2022-09-22T10:31:03.591Z,99652.75
2022-09-22T10:33:34.316Z,99658.38
2022-09-22T10:36:11.857Z,99656.47
2022-09-22T10:38:44.996Z,99647.28
2022-09-22T10:41:18.105Z,99663.25
2022-09-22T10:43:53.334Z,99666.06
2022-09-22T10:47:06.291Z,99665.34
2022-09-22T10:49:55.314Z,99660.50
2022-09-22T10:52:32.291Z,99662.66
2022-09-22T10:55:18.277Z,99653.69
2022-09-22T10:58:07.086Z,99662.47
2022-09-22T11:00:40.177Z,99674.78
2022-09-22T11:03:32.872Z,99675.75
2022-09-22T11:06:46.354Z,99678.13
2022-09-22T11:09:50.825Z,99694.66
2022-09-22T11:12:26.515Z,99694.63
2022-09-22T11:15:13.577Z,99683.38
2022-09-22T11:18:10.063Z,99685.91
2022-09-22T11:20:42.427Z,99673.84
2022-09-22T11:23:43.884Z,99681.72
2022-09-22T11:26:37.024Z,99678.78
2022-09-22T11:29:30.611Z,99686.53
2022-09-22T11:32:09.368Z,99693.22
2022-09-22T11:34:54.980Z,99684.47
2022-09-22T11:37:40.189Z,99692.09
2022-09-22T11:40:28.831Z,99699.41
2022-09-22T11:43:20.781Z,99691.75
2022-09-22T11:45:55.337Z,99649.19
2022-09-22T11:48:46.293Z,99658.81
2022-09-22T11:51:47.669Z,99704.69
2022-09-22T11:54:34.788Z,99697.84
2022-09-22T11:57:11.537Z,99695.25
2022-09-22T11:59:45.892Z,99683.47
2022-09-22T12:02:23.575Z,99673.06
2022-09-22T12:04:59.047Z,99690.00
2022-09-22T12:07:35.270Z,99685.94
2022-09-22T12:10:11.012Z,99688.69
2022-09-22T12:12:48.623Z,99688.00
2022-09-22T12:15:25.061Z,99691.03
2022-09-22T12:18:02.625Z,99680.63
2022-09-22T12:20:45.853Z,99681.97
2022-09-22T12:23:28.912Z,99675.75
2022-09-22T12:26:04.185Z,99669.03
2022-09-22T12:28:40.347Z,99662.41
2022-09-22T12:31:14.220Z,99659.69
2022-09-22T12:33:50.859Z,99655.97
2022-09-22T12:36:29.977Z,99643.84
2022-09-22T12:39:19.008Z,99650.19
2022-09-22T12:41:52.349Z,99647.81
2022-09-22T12:44:25.401Z,99646.81
2022-09-22T12:47:01.280Z,99634.88
2022-09-22T12:49:32.238Z,99644.63
2022-09-22T12:52:02.173Z,99649.78
2022-09-22T12:54:40.269Z,99642.56
2022-09-22T12:57:29.362Z,99646.09
2022-09-22T13:00:23.169Z,99646.28
2022-09-22T13:02:53.990Z,99647.44
2022-09-22T13:05:45.560Z,99641.03
2022-09-22T13:08:24.974Z,99633.59
2022-09-22T13:11:01.257Z,99625.28
2022-09-22T13:13:37.167Z,99628.81
2022-09-22T13:16:38.207Z,99627.50
2022-09-22T13:19:11.545Z,99635.44
2022-09-22T13:21:41.898Z,99631.31
2022-09-22T13:24:25.108Z,99620.78
2022-09-22T13:27:05.936Z,99626.41
2022-09-22T13:29:36.543Z,99621.00
2022-09-22T13:32:18.506Z,99631.63
2022-09-22T13:34:49.293Z,99622.69
2022-09-22T13:37:23.456Z,99623.16
2022-09-22T13:39:55.415Z,99623.66
2022-09-22T13:42:31.844Z,99618.19
2022-09-22T13:45:06.420Z,99620.72
2022-09-22T13:47:39.524Z,99620.78
2022-09-22T13:50:19.824Z,99613.38
2022-09-22T13:52:54.016Z,99603.94
2022-09-22T13:55:29.350Z,99616.09
2022-09-22T13:58:03.711Z,99623.69
2022-09-22T14:00:49.934Z,99618.47
2022-09-22T14:03:26.315Z,99625.25
2022-09-22T14:05:57.402Z,99624.19
2022-09-22T14:08:32.822Z,99614.28
2022-09-22T14:11:04.068Z,99612.41
2022-09-22T14:13:59.309Z,99616.97
2022-09-22T14:16:35.225Z,99613.59
2022-09-22T14:19:09.581Z,99613.22
2022-09-22T14:21:50.382Z,99612.56
2022-09-22T14:24:20.909Z,99612.41
2022-09-22T14:26:54.891Z,99602.78
2022-09-22T14:29:29.454Z,99610.38
2022-09-22T14:32:10.743Z,99601.75
2022-09-22T14:34:48.458Z,99611.81
2022-09-22T14:37:26.160Z,99613.50
2022-09-22T14:39:59.131Z,99597.34
2022-09-22T14:42:33.007Z,99605.44
2022-09-22T14:45:17.828Z,99604.25
2022-09-22T14:47:48.380Z,99597.34
2022-09-22T14:50:22.007Z,99603.56
2022-09-22T14:52:56.591Z,99608.69
2022-09-22T14:55:32.408Z,99601.59
2022-09-22T14:58:07.467Z,99601.13
2022-09-22T15:01:10.724Z,99600.28
2022-09-22T15:03:44.970Z,99601.66
2022-09-22T15:06:16.189Z,99602.88
2022-09-22T15:08:52.086Z,99601.53
2022-09-22T15:11:24.414Z,99606.63
2022-09-22T15:13:54.559Z,99604.59
2022-09-22T15:16:40.007Z,99607.84
2022-09-22T15:19:13.445Z,99610.56
2022-09-22T15:21:47.942Z,99613.63
2022-09-22T15:24:27.065Z,99618.88
2022-09-22T15:27:03.174Z,99618.75
2022-09-22T15:29:34.677Z,99619.25
2022-09-22T15:32:06.810Z,99562.66
2022-09-22T15:34:41.243Z,99617.09
2022-09-22T15:37:18.507Z,99618.13
2022-09-22T15:39:48.603Z,99626.75
2022-09-22T15:42:18.508Z,99627.25
2022-09-22T15:44:50.789Z,99630.28
2022-09-22T15:47:22.800Z,99633.03
2022-09-22T15:49:52.752Z,99634.22
2022-09-22T15:52:22.743Z,99639.09
2022-09-22T15:54:52.592Z,99628.00
2022-09-22T15:57:22.411Z,99624.81
2022-09-22T15:59:53.269Z,99626.84
2022-09-22T16:02:25.328Z,99628.53
2022-09-22T16:04:57.344Z,99637.50
2022-09-22T16:07:27.167Z,99647.44
2022-09-22T16:09:57.356Z,99645.75
2022-09-22T16:12:28.316Z,99638.00
2022-09-22T16:14:59.151Z,99648.44
2022-09-22T16:17:30.405Z,99646.25
2022-09-22T16:20:00.974Z,99640.69
2022-09-22T16:22:30.908Z,99649.78
2022-09-22T16:25:01.099Z,99650.63
2022-09-22T16:27:31.131Z,99646.38
2022-09-22T16:30:01.460Z,99653.44
2022-09-22T16:32:34.226Z,99651.78
2022-09-22T16:35:04.141Z,99661.50
2022-09-22T16:37:33.936Z,99663.66
2022-09-22T16:40:03.962Z,99669.56
2022-09-22T16:42:33.764Z,99671.88
2022-09-22T16:45:04.318Z,99678.47
2022-09-22T16:47:35.451Z,99678.63
2022-09-22T16:50:05.706Z,99678.25
2022-09-22T16:52:35.776Z,99682.97
2022-09-22T16:55:06.839Z,99687.16
2022-09-22T16:57:36.636Z,99691.22
2022-09-22T17:00:07.642Z,99695.06
2022-09-22T17:02:38.833Z,99692.66
2022-09-22T17:05:11.269Z,99696.63
2022-09-22T17:07:41.326Z,99705.00
2022-09-22T17:10:11.535Z,99700.28
2022-09-22T17:12:44.667Z,99707.69
2022-09-22T17:15:15.674Z,99704.09
2022-09-22T17:17:46.864Z,99705.59
2022-09-22T17:20:16.955Z,99708.44
2022-09-22T17:22:47.712Z,99714.31
2022-09-22T17:25:18.872Z,99717.25
2022-09-22T17:27:48.986Z,99723.50
2022-09-22T17:30:19.012Z,99726.50
2022-09-22T17:32:50.351Z,99729.47
2022-09-22T17:35:20.162Z,99729.63
2022-09-22T17:37:51.835Z,99728.81
2022-09-22T17:40:21.629Z,99720.97
2022-09-22T17:42:51.493Z,99732.19
2022-09-22T17:45:21.973Z,99729.19
2022-09-22T17:48:10.904Z,99733.50
2022-09-22T17:50:58.096Z,99733.34
2022-09-22T17:53:45.430Z,99746.56
2022-09-22T17:56:15.497Z,99746.97
2022-09-22T17:58:46.558Z,99747.31
2022-09-22T18:01:16.848Z,99758.59
2022-09-22T18:03:48.536Z,99759.44
2022-09-22T18:06:19.408Z,99761.75
2022-09-22T18:08:49.238Z,99765.13
2022-09-22T18:11:19.070Z,99771.31
2022-09-22T18:13:50.688Z,99773.09
2022-09-22T18:16:22.394Z,99769.34
2022-09-22T18:18:53.580Z,99768.25
2022-09-22T18:21:24.163Z,99768.56
2022-09-22T18:23:53.892Z,99767.34
2022-09-22T18:26:24.284Z,99764.50
2022-09-22T18:28:54.355Z,99771.25
2022-09-22T18:31:26.470Z,99769.56
2022-09-22T18:33:58.335Z,99772.25
2022-09-22T18:36:28.321Z,99773.53
2022-09-22T18:38:58.446Z,99775.28
2022-09-22T18:41:28.678Z,99774.19
2022-09-22T18:43:59.731Z,99778.22
2022-09-22T18:46:29.923Z,99782.09
2022-09-22T18:49:05.955Z,99775.31
2022-09-22T18:51:37.714Z,99771.69
2022-09-22T18:54:08.320Z,99773.84
2022-09-22T18:56:39.856Z,99775.13
2022-09-22T18:59:13.314Z,99774.81
2022-09-22T19:01:43.722Z,99756.31
2022-09-22T19:04:17.526Z,99776.56
2022-09-22T19:07:07.919Z,99724.81
2022-09-22T19:09:38.380Z,99776.66
2022-09-22T19:12:10.214Z,99771.28
2022-09-22T19:14:42.005Z,99768.78
2022-09-22T19:17:13.227Z,99771.44
2022-09-22T19:19:49.881Z,99760.50
2022-09-22T19:22:20.107Z,99755.09
2022-09-22T19:24:51.010Z,99755.53
2022-09-22T19:27:23.057Z,99754.25
2022-09-22T19:29:53.093Z,99768.09
2022-09-22T19:32:23.237Z,99773.03
2022-09-22T19:34:54.992Z,99772.34
2022-09-22T19:37:27.928Z,99774.59
2022-09-22T19:39:57.783Z,99772.50
2022-09-22T19:42:28.534Z,99780.66
2022-09-22T19:44:58.388Z,99775.72
2022-09-22T19:47:28.354Z,99776.59
2022-09-22T19:49:59.535Z,99778.41
2022-09-22T19:52:29.224Z,99775.72
2022-09-22T19:54:59.040Z,99782.34
2022-09-22T19:57:29.034Z,99783.38
2022-09-22T19:59:59.094Z,99791.81
2022-09-22T20:02:28.926Z,99788.00
2022-09-22T20:05:00.078Z,99793.47
2022-09-22T20:07:30.187Z,99789.84
2022-09-22T20:10:02.322Z,99795.03
2022-09-22T20:12:32.457Z,99789.97
2022-09-22T20:15:02.774Z,99788.41
2022-09-22T20:17:33.120Z,99793.75
2022-09-22T20:20:05.630Z,99796.94
2022-09-22T20:22:38.762Z,99805.44
2022-09-22T20:25:20.115Z,99800.91
2022-09-22T20:27:50.340Z,99813.00
2022-09-22T20:30:20.150Z,99813.41
2022-09-22T20:32:50.431Z,99812.13
2022-09-22T20:35:22.062Z,99808.69
2022-09-22T20:37:52.424Z,99809.84
2022-09-22T20:40:23.254Z,99806.63
2022-09-22T20:42:55.301Z,99807.16
2022-09-22T20:45:25.275Z,99814.16
2022-09-22T20:47:56.211Z,99810.69
2022-09-22T20:50:27.460Z,99811.34
2022-09-22T20:52:57.296Z,99815.16
2022-09-22T20:55:27.471Z,99813.47
2022-09-22T20:57:57.415Z,99820.00
2022-09-22T21:00:27.237Z,99816.63
2022-09-22T21:03:00.322Z,99816.59
2022-09-22T21:05:31.714Z,99820.81
2022-09-22T21:08:15.622Z,99809.97
2022-09-22T21:10:45.664Z,99819.13
2022-09-22T21:13:15.777Z,99818.44
2022-09-22T21:15:45.651Z,99809.28
2022-09-22T21:18:17.354Z,99812.63
2022-09-22T21:20:49.337Z,99812.84
2022-09-22T21:23:19.660Z,99808.50
2022-09-22T21:25:59.910Z,99805.34
2022-09-22T21:28:29.983Z,99798.69
2022-09-22T21:31:01.728Z,99799.72
2022-09-22T21:33:32.184Z,99783.97
2022-09-22T21:36:08.982Z,99775.22
2022-09-22T21:38:38.945Z,99811.56
2022-09-22T21:41:10.911Z,99811.56
2022-09-22T21:43:41.694Z,99800.84
2022-09-22T21:46:13.457Z,99806.16
2022-09-22T21:48:43.872Z,99787.13
2022-09-22T21:51:19.329Z,99813.16
2022-09-22T21:53:52.206Z,99815.09
2022-09-22T21:56:24.943Z,99811.06
2022-09-22T21:58:56.025Z,99812.63
2022-09-22T22:01:27.887Z,99794.44
2022-09-22T22:03:59.694Z,99813.34
2022-09-22T22:06:33.048Z,99807.28
2022-09-22T22:09:05.201Z,99807.03
2022-09-22T22:11:36.968Z,99810.06
2022-09-22T22:14:09.057Z,99807.66
2022-09-22T22:16:40.697Z,99803.31
2022-09-22T22:19:12.627Z,99802.47
2022-09-22T22:21:44.758Z,99787.56
2022-09-22T22:24:36.152Z,99804.16
2022-09-22T22:27:10.897Z,99804.31
2022-09-22T22:29:41.076Z,99803.47
2022-09-22T22:32:11.825Z,99802.63
2022-09-22T22:34:41.586Z,99814.84
2022-09-22T22:37:12.702Z,99805.88
2022-09-22T22:39:42.478Z,99806.41
2022-09-22T22:42:12.361Z,99802.59
2022-09-22T22:44:42.404Z,99800.34
2022-09-22T22:47:12.330Z,99805.31
2022-09-22T22:49:42.182Z,99804.47
2022-09-22T22:52:13.458Z,99804.03
2022-09-22T22:54:43.338Z,99803.16
2022-09-22T22:57:13.116Z,99797.41
2022-09-22T22:59:42.949Z,99800.19
2022-09-22T23:02:12.737Z,99795.47
2022-09-22T23:04:42.617Z,99800.66
2022-09-22T23:07:13.846Z,99800.94
2022-09-22T23:09:44.280Z,99793.22
2022-09-22T23:12:15.262Z,99800.16
2022-09-22T23:14:45.276Z,99791.25
2022-09-22T23:17:15.720Z,99792.53
2022-09-22T23:19:45.535Z,99791.81
2022-09-22T23:22:16.694Z,99784.81
2022-09-22T23:24:46.505Z,99778.03
2022-09-22T23:27:16.291Z,99781.41
2022-09-22T23:29:46.735Z,99778.75
2022-09-22T23:32:16.503Z,99778.91
2022-09-22T23:34:46.235Z,99781.94
2022-09-22T23:37:17.594Z,99774.53
2022-09-22T23:39:47.328Z,99773.00
2022-09-22T23:42:17.068Z,99779.41
2022-09-22T23:44:46.843Z,99773.25
2022-09-22T23:47:16.656Z,99766.81
2022-09-22T23:49:47.578Z,99772.41
2022-09-22T23:52:18.721Z,99774.06
2022-09-22T23:54:48.612Z,99767.06
2022-09-22T23:57:18.716Z,99776.34
2022-09-22T23:59:48.469Z,99768.34
